createdAt,value
2022-09-14T00:00:23.227Z,0.00
2022-09-14T00:01:26.226Z,0.00
2022-09-14T00:02:23.380Z,0.00
2022-09-14T00:03:23.244Z,0.00
2022-09-14T00:04:23.198Z,0.00
2022-09-14T00:05:23.168Z,0.00
2022-09-14T00:06:23.156Z,0.00
2022-09-14T00:07:23.151Z,0.00
2022-09-14T00:08:23.137Z,0.00
2022-09-14T00:09:23.165Z,0.00
2022-09-14T00:10:23.138Z,0.00
2022-09-14T00:11:23.116Z,0.00
2022-09-14T00:12:23.105Z,0.00
2022-09-14T00:13:31.360Z,0.00
2022-09-14T00:14:23.190Z,0.00
2022-09-14T00:15:32.058Z,0.00
2022-09-14T00:16:30.748Z,0.00
2022-09-14T00:17:23.150Z,0.00
2022-09-14T00:18:23.122Z,0.00
2022-09-14T00:19:23.082Z,0.00
2022-09-14T00:20:23.170Z,0.00
2022-09-14T00:21:23.041Z,0.00
2022-09-14T00:22:22.989Z,0.00
2022-09-14T00:23:22.987Z,0.00
2022-09-14T00:24:22.983Z,0.00
2022-09-14T00:25:22.980Z,0.00
2022-09-14T00:26:22.974Z,0.00
2022-09-14T00:27:22.961Z,0.00
2022-09-14T00:28:22.937Z,0.00
2022-09-14T00:29:22.923Z,0.00
2022-09-14T00:30:22.923Z,0.00
2022-09-14T00:31:22.958Z,0.00
2022-09-14T00:32:22.907Z,0.00
2022-09-14T00:33:22.888Z,0.00
2022-09-14T00:34:22.869Z,0.00
2022-09-14T00:35:22.856Z,0.00
2022-09-14T00:36:22.871Z,0.00
2022-09-14T00:37:22.829Z,0.00
2022-09-14T00:38:22.823Z,0.00
2022-09-14T00:39:22.871Z,0.00
2022-09-14T00:40:22.839Z,0.00
2022-09-14T00:41:22.809Z,0.00
2022-09-14T00:42:22.799Z,0.00
2022-09-14T00:43:22.776Z,0.00
2022-09-14T00:44:22.770Z,0.00
2022-09-14T00:45:22.856Z,0.00
2022-09-14T00:46:22.735Z,0.00
2022-09-14T00:47:22.737Z,0.00
2022-09-14T00:48:22.726Z,0.00
2022-09-14T00:49:22.714Z,0.00
2022-09-14T00:50:22.696Z,0.00
2022-09-14T00:51:22.700Z,0.00
2022-09-14T00:52:22.733Z,0.00
2022-09-14T00:53:22.681Z,0.00
2022-09-14T00:54:22.664Z,0.00
2022-09-14T00:55:22.653Z,0.00
2022-09-14T00:56:22.636Z,0.00
2022-09-14T00:57:22.727Z,0.00
2022-09-14T00:58:22.638Z,0.00
2022-09-14T00:59:22.608Z,0.00
2022-09-14T01:00:22.586Z,0.00
2022-09-14T01:01:22.743Z,0.00
2022-09-14T01:02:22.643Z,0.00
2022-09-14T01:03:22.581Z,0.00
2022-09-14T01:04:22.557Z,0.00
2022-09-14T01:05:22.537Z,0.00
2022-09-14T01:06:22.543Z,0.00
2022-09-14T01:07:22.514Z,0.00
2022-09-14T01:08:22.526Z,0.00
2022-09-14T01:09:22.492Z,0.00
2022-09-14T01:10:22.483Z,0.00
2022-09-14T01:11:22.483Z,0.00
2022-09-14T01:12:22.468Z,0.00
2022-09-14T01:13:22.461Z,0.00
2022-09-14T01:14:22.465Z,0.00
2022-09-14T01:15:22.438Z,0.00
2022-09-14T01:16:22.486Z,0.00
2022-09-14T01:17:22.406Z,0.00
2022-09-14T01:18:22.422Z,0.00
2022-09-14T01:19:22.405Z,0.00
2022-09-14T01:20:22.394Z,0.00
2022-09-14T01:21:22.375Z,0.00
2022-09-14T01:22:22.361Z,0.00
2022-09-14T01:23:22.341Z,0.00
2022-09-14T01:24:22.340Z,0.00
2022-09-14T01:25:22.348Z,0.00
2022-09-14T01:26:22.328Z,0.00
2022-09-14T01:27:22.321Z,0.00
2022-09-14T01:28:22.290Z,0.00
2022-09-14T01:29:22.296Z,0.00
2022-09-14T01:30:22.275Z,0.00
2022-09-14T01:31:22.394Z,0.00
2022-09-14T01:32:22.247Z,0.00
2022-09-14T01:33:22.238Z,0.00
2022-09-14T01:34:22.238Z,0.00
2022-09-14T01:35:22.225Z,0.00
2022-09-14T01:36:22.204Z,0.00
2022-09-14T01:37:22.237Z,0.00
2022-09-14T01:38:22.189Z,0.00
2022-09-14T01:39:22.176Z,0.00
2022-09-14T01:40:22.244Z,0.00
2022-09-14T01:41:22.148Z,0.00
2022-09-14T01:42:22.148Z,0.00
2022-09-14T01:43:22.156Z,0.00
2022-09-14T01:44:22.127Z,0.00
2022-09-14T01:45:22.197Z,0.00
2022-09-14T01:46:22.100Z,0.00
2022-09-14T01:47:22.087Z,0.00
2022-09-14T01:48:22.085Z,0.00
2022-09-14T01:49:22.083Z,0.00
2022-09-14T01:50:22.055Z,0.00
2022-09-14T01:51:22.043Z,0.00
2022-09-14T01:52:22.035Z,0.00
2022-09-14T01:53:22.051Z,0.00
2022-09-14T01:54:22.013Z,0.00
2022-09-14T01:55:22.015Z,0.00
2022-09-14T01:56:22.001Z,0.00
2022-09-14T01:57:21.990Z,0.00
2022-09-14T01:58:21.978Z,0.00
2022-09-14T01:59:21.977Z,0.00
2022-09-14T02:00:21.952Z,0.00
2022-09-14T02:01:22.037Z,0.00
2022-09-14T02:02:21.967Z,0.00
2022-09-14T02:03:21.919Z,0.00
2022-09-14T02:04:21.913Z,0.00
2022-09-14T02:05:21.920Z,0.00
2022-09-14T02:06:21.884Z,0.00
2022-09-14T02:07:21.876Z,0.00
2022-09-14T02:08:21.878Z,0.00
2022-09-14T02:09:21.861Z,0.00
2022-09-14T02:10:21.849Z,0.00
2022-09-14T02:11:21.845Z,0.00
2022-09-14T02:12:21.817Z,0.00
2022-09-14T02:13:21.814Z,0.00
2022-09-14T02:14:21.839Z,0.00
2022-09-14T02:15:21.806Z,0.00
2022-09-14T02:16:21.861Z,0.00
2022-09-14T02:17:21.770Z,0.00
2022-09-14T02:18:21.841Z,0.00
2022-09-14T02:19:23.788Z,0.00
2022-09-14T02:20:21.758Z,0.00
2022-09-14T02:21:21.738Z,0.00
2022-09-14T02:22:29.385Z,0.00
2022-09-14T02:23:21.780Z,0.00
2022-09-14T02:24:30.420Z,0.00
2022-09-14T02:25:30.327Z,0.00
2022-09-14T02:26:21.755Z,0.00
2022-09-14T02:27:21.773Z,0.00
2022-09-14T02:28:21.714Z,0.00
2022-09-14T02:29:21.735Z,0.00
2022-09-14T02:30:21.651Z,0.00
2022-09-14T02:31:21.682Z,0.00
2022-09-14T02:32:21.641Z,0.00
2022-09-14T02:33:21.605Z,0.00
2022-09-14T02:34:21.609Z,0.00
2022-09-14T02:35:21.588Z,0.00
2022-09-14T02:36:21.567Z,0.00
2022-09-14T02:37:21.553Z,0.00
2022-09-14T02:38:21.561Z,0.00
2022-09-14T02:39:21.543Z,0.00
2022-09-14T02:40:21.602Z,0.00
2022-09-14T02:41:21.521Z,0.00
2022-09-14T02:42:21.518Z,0.00
2022-09-14T02:43:21.485Z,0.00
2022-09-14T02:44:21.480Z,0.00
2022-09-14T02:45:21.487Z,0.00
2022-09-14T02:46:21.523Z,0.00
2022-09-14T02:47:21.466Z,0.00
2022-09-14T02:48:21.441Z,0.00
2022-09-14T02:49:21.428Z,0.00
2022-09-14T02:50:21.441Z,0.00
2022-09-14T02:51:21.410Z,0.00
2022-09-14T02:52:21.398Z,0.00
2022-09-14T02:53:21.394Z,0.00
2022-09-14T02:54:21.367Z,0.00
2022-09-14T02:55:21.377Z,0.00
2022-09-14T02:56:21.361Z,0.00
2022-09-14T02:57:21.342Z,0.00
2022-09-14T02:58:21.350Z,0.00
2022-09-14T02:59:21.313Z,0.00
2022-09-14T03:00:21.316Z,0.00
2022-09-14T03:01:21.420Z,0.00
2022-09-14T03:02:21.393Z,0.00
2022-09-14T03:03:21.286Z,0.00
2022-09-14T03:04:21.271Z,0.00
2022-09-14T03:05:21.253Z,0.00
2022-09-14T03:06:21.302Z,0.00
2022-09-14T03:07:21.230Z,0.00
2022-09-14T03:08:21.217Z,0.00
2022-09-14T03:09:21.211Z,0.00
2022-09-14T03:10:21.205Z,0.00
2022-09-14T03:11:21.208Z,0.00
2022-09-14T03:12:21.201Z,0.00
2022-09-14T03:13:21.171Z,0.00
2022-09-14T03:14:21.163Z,0.00
2022-09-14T03:15:21.151Z,0.00
2022-09-14T03:16:21.269Z,0.00
2022-09-14T03:17:21.135Z,0.00
2022-09-14T03:18:21.132Z,0.00
2022-09-14T03:19:21.117Z,0.00
2022-09-14T03:20:21.104Z,0.00
2022-09-14T03:21:21.088Z,0.00
2022-09-14T03:22:21.183Z,0.00
2022-09-14T03:23:21.062Z,0.00
2022-09-14T03:24:21.057Z,0.00
2022-09-14T03:25:21.041Z,0.00
2022-09-14T03:26:21.028Z,0.00
2022-09-14T03:27:21.023Z,0.00
2022-09-14T03:28:21.044Z,0.00
2022-09-14T03:29:21.004Z,0.00
2022-09-14T03:30:21.015Z,0.00
2022-09-14T03:31:21.061Z,0.00
2022-09-14T03:32:20.972Z,0.00
2022-09-14T03:33:20.960Z,0.00
2022-09-14T03:34:20.960Z,0.00
2022-09-14T03:35:20.934Z,0.00
2022-09-14T03:36:20.948Z,0.00
2022-09-14T03:37:20.913Z,0.00
2022-09-14T03:38:20.917Z,0.00
2022-09-14T03:39:20.909Z,0.00
2022-09-14T03:40:22.011Z,0.00
2022-09-14T03:41:20.867Z,0.00
2022-09-14T03:42:20.865Z,0.00
2022-09-14T03:43:20.860Z,0.00
2022-09-14T03:44:20.865Z,0.00
2022-09-14T03:45:20.830Z,0.00
2022-09-14T03:46:20.845Z,0.00
2022-09-14T03:47:20.811Z,0.00
2022-09-14T03:48:20.833Z,0.00
2022-09-14T03:49:20.789Z,0.00
2022-09-14T03:50:20.795Z,0.00
2022-09-14T03:51:20.770Z,0.00
2022-09-14T03:52:20.747Z,0.00
2022-09-14T03:53:20.741Z,0.00
2022-09-14T03:54:20.752Z,0.00
2022-09-14T03:55:20.739Z,0.00
2022-09-14T03:56:20.738Z,0.00
2022-09-14T03:57:20.695Z,0.00
2022-09-14T03:58:20.686Z,0.00
2022-09-14T03:59:20.689Z,0.00
2022-09-14T04:00:20.669Z,0.00
2022-09-14T04:01:20.786Z,0.00
2022-09-14T04:02:20.678Z,0.00
2022-09-14T04:03:20.738Z,0.00
2022-09-14T04:04:20.632Z,0.00
2022-09-14T04:05:21.976Z,0.00
2022-09-14T04:06:20.618Z,4.00
2022-09-14T04:07:20.608Z,4.00
2022-09-14T04:08:20.588Z,0.00
2022-09-14T04:09:20.579Z,0.00
2022-09-14T04:10:20.675Z,4.00
2022-09-14T04:11:20.567Z,4.00
2022-09-14T04:12:20.547Z,4.00
2022-09-14T04:13:20.560Z,4.00
2022-09-14T04:14:20.516Z,4.00
2022-09-14T04:15:20.525Z,4.00
2022-09-14T04:16:20.640Z,8.00
2022-09-14T04:17:20.493Z,12.00
2022-09-14T04:18:20.478Z,12.00
2022-09-14T04:19:20.493Z,16.00
2022-09-14T04:20:20.473Z,16.00
2022-09-14T04:21:20.446Z,20.00
2022-09-14T04:22:20.437Z,20.00
2022-09-14T04:23:20.422Z,28.00
2022-09-14T04:24:20.667Z,28.00
2022-09-14T04:25:20.416Z,36.00
2022-09-14T04:26:20.498Z,36.00
2022-09-14T04:27:20.389Z,44.00
2022-09-14T04:28:20.961Z,52.00
2022-09-14T04:29:20.365Z,60.00
2022-09-14T04:30:20.362Z,68.00
2022-09-14T04:31:20.385Z,72.00
2022-09-14T04:32:34.071Z,88.00
2022-09-14T04:33:21.424Z,96.00
2022-09-14T04:35:30.750Z,120.00
2022-09-14T04:36:30.705Z,132.00
2022-09-14T04:37:30.667Z,144.00
2022-09-14T04:38:30.709Z,160.00
2022-09-14T04:39:30.647Z,176.00
2022-09-14T04:40:30.648Z,200.00
2022-09-14T04:41:30.586Z,224.00
2022-09-14T04:42:30.589Z,248.00
2022-09-14T04:43:30.555Z,272.00
2022-09-14T04:44:30.548Z,292.00
2022-09-14T04:45:30.556Z,316.00
2022-09-14T04:46:30.585Z,348.00
2022-09-14T04:47:30.522Z,384.00
2022-09-14T04:48:30.532Z,420.00
2022-09-14T04:49:30.501Z,452.00
2022-09-14T04:50:30.484Z,488.00
2022-09-14T04:51:30.509Z,520.00
2022-09-14T04:52:30.477Z,560.00
2022-09-14T04:53:30.445Z,592.00
2022-09-14T04:54:30.450Z,612.00
2022-09-14T04:55:30.470Z,640.00
2022-09-14T04:56:30.424Z,672.00
2022-09-14T04:57:30.447Z,708.00
2022-09-14T04:58:30.398Z,744.00
2022-09-14T04:59:30.410Z,780.00
2022-09-14T05:00:30.445Z,820.00
2022-09-14T05:01:30.429Z,840.00
2022-09-14T05:02:30.442Z,868.00
2022-09-14T05:03:30.336Z,880.00
2022-09-14T05:04:30.350Z,904.00
2022-09-14T05:05:30.351Z,916.00
2022-09-14T05:06:30.329Z,928.00
2022-09-14T05:07:30.312Z,948.00
2022-09-14T05:08:30.385Z,988.00
2022-09-14T05:09:30.286Z,1048.00
2022-09-14T05:10:30.272Z,1128.00
2022-09-14T05:11:30.282Z,1200.00
2022-09-14T05:12:30.246Z,1288.00
2022-09-14T05:13:30.276Z,1364.00
2022-09-14T05:14:30.245Z,1424.00
2022-09-14T05:15:30.261Z,1468.00
2022-09-14T05:16:30.285Z,1500.00
2022-09-14T05:17:30.216Z,1536.00
2022-09-14T05:18:30.213Z,1596.00
2022-09-14T05:19:30.172Z,1684.00
2022-09-14T05:20:30.175Z,1736.00
2022-09-14T05:21:30.166Z,1736.00
2022-09-14T05:22:30.163Z,1724.00
2022-09-14T05:23:30.136Z,1708.00
2022-09-14T05:24:30.148Z,1672.00
2022-09-14T05:25:30.107Z,1616.00
2022-09-14T05:26:30.120Z,1556.00
2022-09-14T05:27:30.111Z,1532.00
2022-09-14T05:28:30.091Z,1572.00
2022-09-14T05:29:30.145Z,1680.00
2022-09-14T05:30:30.090Z,1780.00
2022-09-14T05:31:30.218Z,1812.00
2022-09-14T05:32:30.078Z,1776.00
2022-09-14T05:33:30.034Z,1740.00
2022-09-14T05:34:30.071Z,1748.00
2022-09-14T05:35:30.010Z,1812.00
2022-09-14T05:36:30.033Z,1876.00
2022-09-14T05:37:30.029Z,1916.00
2022-09-14T05:38:29.991Z,1924.00
2022-09-14T05:39:29.981Z,1912.00
2022-09-14T05:40:30.086Z,1888.00
2022-09-14T05:41:29.949Z,1880.00
2022-09-14T05:42:29.957Z,1904.00
2022-09-14T05:43:29.940Z,1948.00
2022-09-14T05:44:29.950Z,1996.00
2022-09-14T05:45:29.964Z,2020.00
2022-09-14T05:46:29.940Z,2032.00
2022-09-14T05:47:29.941Z,2072.00
2022-09-14T05:48:29.885Z,2168.00
2022-09-14T05:49:29.864Z,2284.00
2022-09-14T05:50:29.891Z,2340.00
2022-09-14T05:51:29.843Z,2364.00
2022-09-14T05:52:29.824Z,2352.00
2022-09-14T05:53:29.844Z,2320.00
2022-09-14T05:54:29.826Z,2276.00
2022-09-14T05:55:29.793Z,2252.00
2022-09-14T05:56:29.784Z,2276.00
2022-09-14T05:57:29.778Z,2340.00
2022-09-14T05:58:29.766Z,2448.00
2022-09-14T05:59:29.775Z,2616.00
2022-09-14T06:00:29.765Z,2828.00
2022-09-14T06:01:29.956Z,3036.00
2022-09-14T06:02:29.783Z,3232.00
2022-09-14T06:03:29.736Z,3364.00
2022-09-14T06:04:29.768Z,3448.00
2022-09-14T06:05:29.746Z,3568.00
2022-09-14T06:06:29.685Z,3572.00
2022-09-14T06:07:29.676Z,3652.00
2022-09-14T06:08:29.678Z,3760.00
2022-09-14T06:09:33.104Z,3836.00
2022-09-14T06:10:29.659Z,3896.00
2022-09-14T06:11:29.630Z,4028.00
2022-09-14T06:12:29.632Z,4160.00
2022-09-14T06:13:29.599Z,4268.00
2022-09-14T06:14:29.603Z,4416.00
2022-09-14T06:15:29.632Z,4576.00
2022-09-14T06:16:29.567Z,4652.00
2022-09-14T06:17:29.584Z,4652.00
2022-09-14T06:18:29.559Z,4556.00
2022-09-14T06:19:29.551Z,4496.00
2022-09-14T06:20:29.559Z,4404.00
2022-09-14T06:21:29.515Z,4336.00
2022-09-14T06:22:29.511Z,4364.00
2022-09-14T06:23:29.498Z,4488.00
2022-09-14T06:24:29.491Z,4676.00
2022-09-14T06:25:29.517Z,4820.00
2022-09-14T06:26:29.477Z,4980.00
2022-09-14T06:27:29.511Z,5268.00
2022-09-14T06:28:29.447Z,5600.00
2022-09-14T06:29:29.451Z,5936.00
2022-09-14T06:30:29.423Z,6244.00
2022-09-14T06:31:29.455Z,6448.00
2022-09-14T06:32:29.417Z,6348.00
2022-09-14T06:33:29.412Z,6252.00
2022-09-14T06:34:29.408Z,6012.00
2022-09-14T06:35:29.387Z,5772.00
2022-09-14T06:36:29.374Z,5728.00
2022-09-14T06:37:29.350Z,5900.00
2022-09-14T06:38:29.341Z,6064.00
2022-09-14T06:39:29.326Z,6208.00
2022-09-14T06:40:29.415Z,6228.00
2022-09-14T06:41:29.365Z,6016.00
2022-09-14T06:42:29.293Z,5936.00
2022-09-14T06:43:29.316Z,6004.00
2022-09-14T06:44:29.372Z,6280.00
2022-09-14T06:45:29.280Z,6708.00
2022-09-14T06:46:29.290Z,7184.00
2022-09-14T06:47:29.326Z,7616.00
2022-09-14T06:48:29.273Z,7936.00
2022-09-14T06:49:29.267Z,7820.00
2022-09-14T06:50:29.245Z,7644.00
2022-09-14T06:51:29.198Z,7364.00
2022-09-14T06:52:33.546Z,7124.00
2022-09-14T06:53:29.301Z,6876.00
2022-09-14T06:54:29.178Z,6928.00
2022-09-14T06:55:29.265Z,7016.00
2022-09-14T06:56:29.205Z,6940.00
2022-09-14T06:57:29.168Z,6712.00
2022-09-14T06:58:29.160Z,6276.00
2022-09-14T06:59:37.079Z,5992.00
2022-09-14T07:00:38.979Z,5644.00
2022-09-14T07:01:29.201Z,5360.00
2022-09-14T07:02:29.244Z,5112.00
2022-09-14T07:03:29.232Z,4868.00
2022-09-14T07:04:29.222Z,4680.00
2022-09-14T07:05:29.157Z,4608.00
2022-09-14T07:06:29.071Z,4632.00
2022-09-14T07:07:29.087Z,4760.00
2022-09-14T07:08:29.125Z,4924.00
2022-09-14T07:09:29.027Z,5140.00
2022-09-14T07:10:29.010Z,5404.00
2022-09-14T07:11:29.029Z,5680.00
2022-09-14T07:12:29.007Z,5976.00
2022-09-14T07:13:29.000Z,6296.00
2022-09-14T07:14:32.244Z,6544.00
2022-09-14T07:15:28.979Z,6704.00
2022-09-14T07:16:28.951Z,6696.00
2022-09-14T07:17:28.944Z,6592.00
2022-09-14T07:18:28.932Z,6360.00
2022-09-14T07:19:28.990Z,6132.00
2022-09-14T07:20:28.950Z,6024.00
2022-09-14T07:21:28.964Z,6100.00
2022-09-14T07:22:29.026Z,6324.00
2022-09-14T07:23:28.907Z,6540.00
2022-09-14T07:24:28.897Z,6688.00
2022-09-14T07:25:28.863Z,6900.00
2022-09-14T07:26:28.934Z,7172.00
2022-09-14T07:27:28.899Z,7608.00
2022-09-14T07:28:28.825Z,8068.00
2022-09-14T07:29:28.829Z,8604.00
2022-09-14T07:30:28.887Z,9164.00
2022-09-14T07:31:28.878Z,9668.00
2022-09-14T07:32:28.833Z,10024.00
2022-09-14T07:33:28.837Z,10188.00
2022-09-14T07:34:28.765Z,10212.00
2022-09-14T07:35:28.813Z,10280.00
2022-09-14T07:36:32.776Z,10280.00
2022-09-14T07:37:29.778Z,10372.00
2022-09-14T07:38:48.589Z,10424.00
2022-09-14T07:39:29.767Z,10532.00
2022-09-14T07:40:28.907Z,10484.00
2022-09-14T07:41:28.789Z,10280.00
2022-09-14T07:42:28.731Z,10036.00
2022-09-14T07:43:28.695Z,9908.00
2022-09-14T07:44:28.633Z,9844.00
2022-09-14T07:45:28.644Z,9864.00
2022-09-14T07:46:28.768Z,9896.00
2022-09-14T07:47:28.633Z,9972.00
2022-09-14T07:48:28.602Z,10148.00
2022-09-14T07:49:28.617Z,10368.00
2022-09-14T07:50:28.588Z,10632.00
2022-09-14T07:51:28.625Z,10916.00
2022-09-14T07:52:28.620Z,10980.00
2022-09-14T07:53:28.640Z,10964.00
2022-09-14T07:54:28.540Z,10916.00
2022-09-14T07:55:28.559Z,10876.00
2022-09-14T07:56:28.580Z,10844.00
2022-09-14T07:57:52.216Z,10844.00
2022-09-14T07:58:29.568Z,10864.00
2022-09-14T07:59:36.136Z,10860.00
2022-09-14T08:00:29.579Z,10832.00
2022-09-14T08:01:28.539Z,10752.00
2022-09-14T08:02:28.628Z,10668.00
2022-09-14T08:03:28.497Z,10584.00
2022-09-14T08:04:28.431Z,10520.00
2022-09-14T08:05:28.428Z,10456.00
2022-09-14T08:06:28.476Z,10352.00
2022-09-14T08:07:28.417Z,10272.00
2022-09-14T08:08:28.392Z,10256.00
2022-09-14T08:09:28.384Z,10200.00
2022-09-14T08:10:28.390Z,10196.00
2022-09-14T08:11:28.395Z,10232.00
2022-09-14T08:12:28.362Z,10348.00
2022-09-14T08:13:28.462Z,10472.00
2022-09-14T08:14:28.357Z,10632.00
2022-09-14T08:15:28.777Z,10808.00
2022-09-14T08:16:28.447Z,10976.00
2022-09-14T08:17:28.294Z,11244.00
2022-09-14T08:18:28.292Z,11540.00
2022-09-14T08:19:28.456Z,11908.00
2022-09-14T08:21:44.147Z,12796.00
2022-09-14T08:22:40.956Z,13212.00
2022-09-14T08:23:39.800Z,13588.00
2022-09-14T08:24:39.778Z,13960.00
2022-09-14T08:25:39.674Z,14256.00
2022-09-14T08:26:39.660Z,14244.00
2022-09-14T08:27:39.670Z,14036.00
2022-09-14T08:28:39.697Z,13904.00
2022-09-14T08:29:39.624Z,13928.00
2022-09-14T08:30:39.666Z,14132.00
2022-09-14T08:31:39.713Z,14360.00
2022-09-14T08:32:39.611Z,14412.00
2022-09-14T08:33:39.595Z,14344.00
2022-09-14T08:34:39.587Z,14072.00
2022-09-14T08:35:56.967Z,13932.00
2022-09-14T08:36:40.584Z,13836.00
2022-09-14T08:37:39.563Z,13804.00
2022-09-14T08:38:39.561Z,13792.00
2022-09-14T08:39:39.549Z,13784.00
2022-09-14T08:40:39.604Z,13740.00
2022-09-14T08:41:39.522Z,13644.00
2022-09-14T08:42:39.496Z,13548.00
2022-09-14T08:43:39.595Z,13412.00
2022-09-14T08:44:39.502Z,13188.00
2022-09-14T08:45:39.566Z,12892.00
2022-09-14T08:46:39.535Z,12600.00
2022-09-14T08:47:39.500Z,12264.00
2022-09-14T08:51:02.915Z,11112.00
2022-09-14T08:52:02.873Z,10920.00
2022-09-14T08:53:02.800Z,10912.00
2022-09-14T08:54:02.858Z,11072.00
2022-09-14T08:55:02.754Z,11320.00
2022-09-14T08:56:02.707Z,11568.00
2022-09-14T08:57:02.741Z,11788.00
2022-09-14T08:58:02.638Z,11904.00
2022-09-14T08:59:02.638Z,12036.00
2022-09-14T09:00:02.703Z,12116.00
2022-09-14T09:01:02.746Z,12124.00
2022-09-14T09:02:02.681Z,11952.00
2022-09-14T09:03:02.685Z,11744.00
2022-09-14T09:04:02.659Z,11544.00
2022-09-14T09:05:02.565Z,11320.00
2022-09-14T09:06:02.749Z,11116.00
2022-09-14T09:07:02.645Z,10888.00
2022-09-14T09:08:03.070Z,10740.00
2022-09-14T09:09:02.544Z,10664.00
2022-09-14T09:10:02.538Z,10560.00
2022-09-14T09:11:02.512Z,10444.00
2022-09-14T09:12:02.554Z,10236.00
2022-09-14T09:13:02.537Z,10012.00
2022-09-14T09:14:02.490Z,9788.00
2022-09-14T09:15:02.464Z,9568.00
2022-09-14T09:16:02.558Z,9420.00
2022-09-14T09:17:02.439Z,9332.00
2022-09-14T09:18:02.431Z,9272.00
2022-09-14T09:19:02.432Z,9336.00
2022-09-14T09:20:02.417Z,9452.00
2022-09-14T09:21:02.415Z,9496.00
2022-09-14T09:22:02.391Z,9488.00
2022-09-14T09:23:02.431Z,9392.00
2022-09-14T09:24:02.388Z,9364.00
2022-09-14T09:25:02.379Z,9420.00
2022-09-14T09:26:02.384Z,9532.00
2022-09-14T09:27:02.384Z,9740.00
2022-09-14T09:28:02.353Z,10024.00
2022-09-14T09:29:02.369Z,10492.00
2022-09-14T09:30:02.445Z,11176.00
2022-09-14T09:31:02.353Z,11668.00
2022-09-14T09:32:02.392Z,11884.00
2022-09-14T09:33:02.275Z,11596.00
2022-09-14T09:34:02.414Z,11196.00
2022-09-14T09:35:02.276Z,10564.00
2022-09-14T09:36:02.287Z,10000.00
2022-09-14T09:37:02.347Z,9548.00
2022-09-14T09:38:02.288Z,9264.00
2022-09-14T09:39:05.161Z,9200.00
2022-09-14T09:40:02.298Z,9268.00
2022-09-14T09:41:02.207Z,9372.00
2022-09-14T09:42:02.210Z,9488.00
2022-09-14T09:43:02.257Z,9708.00
2022-09-14T09:44:02.180Z,9964.00
2022-09-14T09:45:03.841Z,10232.00
2022-09-14T09:46:02.163Z,10604.00
2022-09-14T09:47:02.294Z,10936.00
2022-09-14T09:48:02.104Z,11264.00
2022-09-14T09:49:02.105Z,11556.00
2022-09-14T09:50:02.087Z,11860.00
2022-09-14T09:51:02.071Z,12076.00
2022-09-14T09:52:02.095Z,11932.00
2022-09-14T09:53:06.564Z,11756.00
2022-09-14T09:54:02.031Z,11476.00
2022-09-14T09:55:02.048Z,11208.00
2022-09-14T09:56:02.017Z,11084.00
2022-09-14T09:57:02.008Z,11104.00
2022-09-14T09:58:02.019Z,11228.00
2022-09-14T09:59:01.993Z,11324.00
2022-09-14T10:00:01.997Z,11472.00
2022-09-14T10:01:02.078Z,11604.00
2022-09-14T10:02:02.056Z,11776.00
2022-09-14T10:03:01.945Z,11968.00
2022-09-14T10:04:01.970Z,12252.00
2022-09-14T10:05:01.972Z,12440.00
2022-09-14T10:06:01.910Z,12676.00
2022-09-14T10:07:01.911Z,12972.00
2022-09-14T10:08:01.891Z,13500.00
2022-09-14T10:09:01.879Z,13596.00
2022-09-14T10:10:02.004Z,13932.00
2022-09-14T10:11:01.894Z,14132.00
2022-09-14T10:12:01.861Z,14184.00
2022-09-14T10:13:01.900Z,14180.00
2022-09-14T10:14:01.854Z,14180.00
2022-09-14T10:15:01.850Z,14200.00
2022-09-14T10:16:01.920Z,14220.00
2022-09-14T10:17:01.794Z,14200.00
2022-09-14T10:18:01.794Z,14180.00
2022-09-14T10:19:01.778Z,14072.00
2022-09-14T10:20:01.781Z,13932.00
2022-09-14T10:21:01.763Z,13704.00
2022-09-14T10:22:01.738Z,13388.00
2022-09-14T10:23:01.730Z,13152.00
2022-09-14T10:24:01.803Z,12956.00
2022-09-14T10:25:01.708Z,12780.00
2022-09-14T10:26:01.747Z,12700.00
2022-09-14T10:27:01.686Z,12612.00
2022-09-14T10:28:01.686Z,12572.00
2022-09-14T10:29:01.802Z,12580.00
2022-09-14T10:30:01.702Z,12436.00
2022-09-14T10:31:01.778Z,12400.00
2022-09-14T10:32:01.647Z,12644.00
2022-09-14T10:33:01.661Z,12896.00
2022-09-14T10:34:01.642Z,13116.00
2022-09-14T10:35:01.626Z,13372.00
2022-09-14T10:36:01.611Z,13480.00
2022-09-14T10:37:01.628Z,13432.00
2022-09-14T10:38:01.571Z,13484.00
2022-09-14T10:39:01.615Z,13440.00
2022-09-14T10:40:01.672Z,13456.00
2022-09-14T10:41:01.542Z,13528.00
2022-09-14T10:42:01.551Z,13444.00
2022-09-14T10:43:01.588Z,13796.00
2022-09-14T10:44:01.554Z,14024.00
2022-09-14T10:45:01.558Z,13996.00
2022-09-14T10:46:01.532Z,14096.00
2022-09-14T10:47:04.723Z,14100.00
2022-09-14T10:48:01.531Z,14112.00
2022-09-14T10:49:01.442Z,14100.00
2022-09-14T10:50:01.448Z,13744.00
2022-09-14T10:51:01.426Z,13432.00
2022-09-14T10:52:01.423Z,12380.00
2022-09-14T10:53:01.465Z,11396.00
2022-09-14T10:54:01.408Z,10736.00
2022-09-14T10:55:01.389Z,10512.00
2022-09-14T10:56:01.453Z,9820.00
2022-09-14T10:57:01.372Z,9284.00
2022-09-14T10:58:01.371Z,8784.00
2022-09-14T10:59:01.347Z,8448.00
2022-09-14T11:00:01.392Z,8816.00
2022-09-14T11:01:01.322Z,9368.00
2022-09-14T11:02:01.447Z,9688.00
2022-09-14T11:03:01.427Z,10128.00
2022-09-14T11:04:01.320Z,10312.00
2022-09-14T11:05:01.293Z,9600.00
2022-09-14T11:06:01.280Z,9200.00
2022-09-14T11:07:01.320Z,9944.00
2022-09-14T11:08:01.247Z,10640.00
2022-09-14T11:09:01.256Z,11348.00
2022-09-14T11:10:01.626Z,11668.00
2022-09-14T11:11:01.221Z,10972.00
2022-09-14T11:12:01.206Z,11036.00
2022-09-14T11:13:01.203Z,10952.00
2022-09-14T11:14:01.312Z,12564.00
2022-09-14T11:15:01.223Z,12916.00
2022-09-14T11:16:01.315Z,12092.00
2022-09-14T11:17:01.184Z,12188.00
2022-09-14T11:18:01.132Z,11624.00
2022-09-14T11:19:01.128Z,9976.00
2022-09-14T11:20:01.254Z,10824.00
2022-09-14T11:21:01.194Z,12216.00
2022-09-14T11:22:01.151Z,13844.00
2022-09-14T11:23:01.086Z,15248.00
2022-09-14T11:24:01.071Z,15360.00
2022-09-14T11:25:01.111Z,15156.00
2022-09-14T11:26:01.063Z,14848.00
2022-09-14T11:27:01.069Z,15044.00
2022-09-14T11:28:01.084Z,14908.00
2022-09-14T11:29:01.039Z,13924.00
2022-09-14T11:30:01.037Z,13864.00
2022-09-14T11:31:01.138Z,13976.00
2022-09-14T11:32:19.902Z,14328.00
2022-09-14T11:33:01.979Z,15136.00
2022-09-14T11:34:00.972Z,16000.00
2022-09-14T11:35:01.011Z,16160.00
2022-09-14T11:36:00.987Z,16320.00
2022-09-14T11:37:00.951Z,16064.00
2022-09-14T11:38:00.957Z,15288.00
2022-09-14T11:39:06.062Z,15280.00
2022-09-14T11:40:01.966Z,16096.00
2022-09-14T11:41:00.892Z,16224.00
2022-09-14T11:42:00.881Z,15388.00
2022-09-14T11:43:00.980Z,14100.00
2022-09-14T11:44:00.879Z,13252.00
2022-09-14T11:45:00.850Z,12524.00
2022-09-14T11:46:00.867Z,12044.00
2022-09-14T11:47:01.136Z,11656.00
2022-09-14T11:48:00.821Z,11188.00
2022-09-14T11:49:00.823Z,10948.00
2022-09-14T11:50:00.833Z,11224.00
2022-09-14T11:51:00.802Z,11764.00
2022-09-14T11:52:00.895Z,11840.00
2022-09-14T11:53:00.789Z,11020.00
2022-09-14T11:54:00.815Z,9868.00
2022-09-14T11:55:00.755Z,9240.00
2022-09-14T11:56:00.770Z,9016.00
2022-09-14T11:57:00.732Z,9284.00
2022-09-14T11:58:00.735Z,9992.00
2022-09-14T11:59:00.704Z,10816.00
2022-09-14T12:00:00.704Z,11228.00
2022-09-14T12:01:00.691Z,11064.00
2022-09-14T12:02:00.674Z,10496.00
2022-09-14T12:03:00.809Z,9824.00
2022-09-14T12:04:00.701Z,9532.00
2022-09-14T12:05:00.638Z,9752.00
2022-09-14T12:06:00.627Z,10288.00
2022-09-14T12:07:00.646Z,10664.00
2022-09-14T12:08:00.641Z,10396.00
2022-09-14T12:09:00.628Z,10136.00
2022-09-14T12:10:00.601Z,10208.00
2022-09-14T12:11:00.582Z,10620.00
2022-09-14T12:12:00.569Z,10952.00
2022-09-14T12:13:00.553Z,11272.00
2022-09-14T12:14:00.610Z,11524.00
2022-09-14T12:15:00.535Z,11608.00
2022-09-14T12:16:00.557Z,11844.00
2022-09-14T12:17:00.579Z,11980.00
2022-09-14T12:18:00.526Z,11884.00
2022-09-14T12:19:00.508Z,11940.00
2022-09-14T12:20:00.477Z,11988.00
2022-09-14T12:21:00.544Z,11792.00
2022-09-14T12:22:00.470Z,11372.00
2022-09-14T12:23:00.496Z,11036.00
2022-09-14T12:24:00.505Z,11276.00
2022-09-14T12:25:00.440Z,11564.00
2022-09-14T12:26:00.464Z,11840.00
2022-09-14T12:27:00.410Z,12492.00
2022-09-14T12:28:00.401Z,13468.00